createdAt,value
2023-01-23T00:01:08.776Z,100063.44
2023-01-23T00:03:35.354Z,100073.59
2023-01-23T00:06:11.957Z,100081.00
2023-01-23T00:08:38.990Z,100076.03
2023-01-23T00:11:11.529Z,100076.97
2023-01-23T00:13:38.722Z,100078.84
2023-01-23T00:16:07.766Z,100069.94
2023-01-23T00:18:35.583Z,100071.72
2023-01-23T00:21:06.983Z,100070.78
2023-01-23T00:23:34.562Z,100067.25
2023-01-23T00:26:09.046Z,100063.88
2023-01-23T00:28:35.614Z,100058.56
2023-01-23T00:31:15.290Z,100052.19
2023-01-23T00:33:43.283Z,100051.16
2023-01-23T00:36:10.699Z,100045.34
2023-01-23T00:38:37.416Z,100042.53
2023-01-23T00:41:04.592Z,100035.78
2023-01-23T00:43:31.077Z,100035.06
2023-01-23T00:45:57.644Z,100038.03
2023-01-23T00:48:24.664Z,100046.28
2023-01-23T00:50:51.672Z,100031.47
2023-01-23T00:53:18.363Z,100035.03
2023-01-23T00:55:44.979Z,100037.00
2023-01-23T00:58:11.841Z,100034.38
2023-01-23T01:00:38.855Z,100038.13
2023-01-23T01:03:06.485Z,100044.38
2023-01-23T01:05:33.594Z,100049.81
2023-01-23T01:08:00.351Z,100047.38
2023-01-23T01:10:26.853Z,100054.03
2023-01-23T01:12:53.191Z,100054.75
2023-01-23T01:15:19.758Z,100053.75
2023-01-23T01:17:46.393Z,100060.66
2023-01-23T01:20:13.384Z,100054.50
2023-01-23T01:22:40.094Z,100055.06
2023-01-23T01:25:06.887Z,100056.41
2023-01-23T01:27:33.525Z,100053.47
2023-01-23T01:30:00.086Z,100057.88
2023-01-23T01:32:26.827Z,100056.69
2023-01-23T01:34:53.527Z,100054.91
2023-01-23T01:37:19.954Z,100065.38
2023-01-23T01:39:46.416Z,100064.81
2023-01-23T01:42:13.160Z,100076.16
2023-01-23T01:44:59.120Z,100068.31
2023-01-23T01:47:26.040Z,100071.84
2023-01-23T01:49:57.538Z,100061.47
2023-01-23T01:52:24.241Z,100078.22
2023-01-23T01:54:56.729Z,100075.41
2023-01-23T01:57:33.745Z,100083.94
2023-01-23T02:00:02.301Z,100077.47
2023-01-23T02:02:32.557Z,100079.81
2023-01-23T02:05:06.390Z,100078.78
2023-01-23T02:07:46.057Z,100082.06
2023-01-23T02:10:12.739Z,100078.59
2023-01-23T02:12:39.124Z,100083.97
2023-01-23T02:15:07.330Z,100078.91
2023-01-23T02:17:35.954Z,100074.19
2023-01-23T02:20:15.339Z,100066.97
2023-01-23T02:22:49.642Z,100075.78
2023-01-23T02:26:01.138Z,100076.38
2023-01-23T02:28:49.329Z,100074.59
2023-01-23T02:31:16.493Z,100066.59
2023-01-23T02:33:48.292Z,100079.91
2023-01-23T02:36:16.049Z,100086.09
2023-01-23T02:38:52.757Z,100097.63
2023-01-23T02:41:26.069Z,100094.16
2023-01-23T02:43:54.544Z,100094.34
2023-01-23T02:46:20.941Z,100100.59
2023-01-23T02:48:47.984Z,100098.94
2023-01-23T02:51:14.525Z,100105.19
2023-01-23T02:53:40.915Z,100103.41
2023-01-23T02:56:07.593Z,100114.84
2023-01-23T02:58:34.424Z,100109.25
2023-01-23T03:01:00.938Z,100108.22
2023-01-23T03:03:27.317Z,100103.44
2023-01-23T03:05:53.781Z,100104.94
2023-01-23T03:08:20.268Z,100109.06
2023-01-23T03:10:46.869Z,100111.59
2023-01-23T03:13:13.452Z,100106.34
2023-01-23T03:15:39.884Z,100109.63
2023-01-23T03:18:06.250Z,100105.31
2023-01-23T03:20:40.684Z,100111.50
2023-01-23T03:23:08.127Z,100105.22
2023-01-23T03:25:34.534Z,100105.59
2023-01-23T03:28:01.131Z,100098.28
2023-01-23T03:30:27.539Z,100105.03
2023-01-23T03:32:53.944Z,100110.09
2023-01-23T03:35:20.480Z,100119.84
2023-01-23T03:37:48.274Z,100121.41
2023-01-23T03:40:20.441Z,100129.03
2023-01-23T03:42:47.280Z,100147.59
2023-01-23T03:45:13.876Z,100153.09
2023-01-23T03:47:40.411Z,100158.34
2023-01-23T03:50:07.639Z,100158.84
2023-01-23T03:52:34.196Z,100160.41
2023-01-23T03:55:00.651Z,100177.75
2023-01-23T03:57:28.090Z,100177.94
2023-01-23T03:59:54.681Z,100189.09
2023-01-23T04:02:21.180Z,100204.66
2023-01-23T04:04:47.733Z,100226.78
2023-01-23T04:07:14.686Z,100237.59
2023-01-23T04:09:41.084Z,100257.81
2023-01-23T04:12:07.559Z,100266.03
2023-01-23T04:14:33.992Z,100269.78
2023-01-23T04:17:00.379Z,100258.47
2023-01-23T04:19:26.870Z,100254.13
2023-01-23T04:21:53.657Z,100253.03
2023-01-23T04:24:20.387Z,100253.09
2023-01-23T04:26:47.103Z,100240.81
2023-01-23T04:29:13.478Z,100241.47
2023-01-23T04:31:40.171Z,100243.84
2023-01-23T04:34:06.592Z,100234.00
2023-01-23T04:36:33.204Z,100233.91
2023-01-23T04:38:59.677Z,100243.19
2023-01-23T04:41:28.380Z,100247.44
2023-01-23T04:43:55.051Z,100245.47
2023-01-23T04:46:21.854Z,100241.91
2023-01-23T04:48:48.966Z,100252.59
2023-01-23T04:51:15.595Z,100251.53
2023-01-23T04:53:42.048Z,100249.63
2023-01-23T04:56:08.419Z,100254.56
2023-01-23T04:58:34.923Z,100260.59
2023-01-23T05:01:03.598Z,100271.94
2023-01-23T05:03:30.139Z,100285.91
2023-01-23T05:05:56.772Z,100321.34
2023-01-23T05:08:23.168Z,100345.81
2023-01-23T05:10:49.613Z,100372.84
2023-01-23T05:13:16.172Z,100400.06
2023-01-23T05:15:42.826Z,100433.25
2023-01-23T05:18:09.190Z,100462.06
2023-01-23T05:20:35.685Z,100489.06
2023-01-23T05:23:02.066Z,100501.53
2023-01-23T05:25:29.290Z,100513.66
2023-01-23T05:27:55.869Z,100515.34
2023-01-23T05:30:23.256Z,100526.63
2023-01-23T05:32:49.901Z,100522.31
2023-01-23T05:35:17.083Z,100524.75
2023-01-23T05:37:43.510Z,100536.34
2023-01-23T05:40:12.931Z,100533.53
2023-01-23T05:42:39.412Z,100533.53
2023-01-23T05:45:07.040Z,100532.53
2023-01-23T05:47:33.431Z,100551.03
2023-01-23T05:49:59.839Z,100559.63
2023-01-23T05:52:26.515Z,100557.00
2023-01-23T05:54:53.125Z,100565.00
2023-01-23T05:57:19.685Z,100575.50
2023-01-23T05:59:46.093Z,100578.38
2023-01-23T06:02:12.803Z,100578.47
2023-01-23T06:04:39.904Z,100583.97
2023-01-23T06:07:12.800Z,100584.06
2023-01-23T06:09:39.522Z,100588.81
2023-01-23T06:12:06.326Z,100586.25
2023-01-23T06:14:32.749Z,100589.97
2023-01-23T06:16:59.498Z,100591.00
2023-01-23T06:19:25.928Z,100584.13
2023-01-23T06:21:52.498Z,100590.38
2023-01-23T06:24:18.911Z,100594.22
2023-01-23T06:26:45.366Z,100603.16
2023-01-23T06:29:11.876Z,100604.56
2023-01-23T06:31:38.665Z,100617.56
2023-01-23T06:34:05.120Z,100613.59
2023-01-23T06:36:31.715Z,100620.69
2023-01-23T06:39:00.149Z,100624.47
2023-01-23T06:41:26.716Z,100618.50
2023-01-23T06:43:53.514Z,100621.28
2023-01-23T06:46:19.882Z,100622.81
2023-01-23T06:48:46.480Z,100614.00
2023-01-23T06:51:12.914Z,100609.25
2023-01-23T06:53:39.421Z,100611.97
2023-01-23T06:56:07.827Z,100610.13
2023-01-23T06:58:35.233Z,100618.06
2023-01-23T07:01:13.119Z,100609.78
2023-01-23T07:03:39.568Z,100612.50
2023-01-23T07:06:06.363Z,100616.91
2023-01-23T07:08:33.669Z,100629.66
2023-01-23T07:11:00.983Z,100633.81
2023-01-23T07:13:28.200Z,100643.59
2023-01-23T07:15:55.049Z,100642.22
2023-01-23T07:18:22.148Z,100648.00
2023-01-23T07:20:48.747Z,100651.63
2023-01-23T07:23:15.832Z,100641.81
2023-01-23T07:25:42.538Z,100642.16
2023-01-23T07:28:08.965Z,100637.94
2023-01-23T07:30:35.547Z,100639.91
2023-01-23T07:33:02.289Z,100627.44
2023-01-23T07:35:28.848Z,100624.88
2023-01-23T07:37:55.944Z,100607.97
2023-01-23T07:40:22.634Z,100599.78
2023-01-23T07:42:49.243Z,100577.81
2023-01-23T07:45:15.825Z,100575.84
2023-01-23T07:47:44.756Z,100567.03
2023-01-23T07:50:13.366Z,100562.09
2023-01-23T07:52:39.857Z,100557.31
2023-01-23T07:55:06.865Z,100561.72
2023-01-23T07:57:33.400Z,100556.38
2023-01-23T08:00:00.798Z,100552.84
2023-01-23T08:02:27.207Z,100547.78
2023-01-23T08:04:53.619Z,100550.13
2023-01-23T08:07:20.122Z,100552.53
2023-01-23T08:09:46.624Z,100547.78
2023-01-23T08:12:13.099Z,100543.91
2023-01-23T08:14:39.761Z,100558.47
2023-01-23T08:17:06.460Z,100545.59
2023-01-23T08:19:32.869Z,100561.59
2023-01-23T08:21:59.498Z,100561.44
2023-01-23T08:24:26.102Z,100562.16
2023-01-23T08:26:52.454Z,100555.91
2023-01-23T08:29:18.824Z,100557.97
2023-01-23T08:31:45.547Z,100570.16
2023-01-23T08:34:11.865Z,100579.31
2023-01-23T08:36:38.382Z,100580.66
2023-01-23T08:39:04.991Z,100597.94
2023-01-23T08:41:31.383Z,100613.47
2023-01-23T08:43:57.719Z,100622.84
2023-01-23T08:46:24.293Z,100632.13
2023-01-23T08:48:50.649Z,100647.94
2023-01-23T08:51:17.232Z,100653.97
2023-01-23T08:53:43.742Z,100642.94
2023-01-23T08:56:21.490Z,100649.81
2023-01-23T08:58:48.975Z,100644.72
2023-01-23T09:01:18.101Z,100617.38
2023-01-23T09:03:44.610Z,100607.22
2023-01-23T09:06:16.510Z,100605.63
2023-01-23T09:08:43.748Z,100571.41
2023-01-23T09:11:12.375Z,100558.22
2023-01-23T09:13:39.090Z,100563.59
2023-01-23T09:16:06.792Z,100562.22
2023-01-23T09:18:33.255Z,100556.84
2023-01-23T09:20:59.813Z,100540.00
2023-01-23T09:23:26.370Z,100523.13
2023-01-23T09:25:52.814Z,100489.94
2023-01-23T09:28:19.237Z,100504.78
2023-01-23T09:30:45.668Z,100496.06
2023-01-23T09:33:12.061Z,100501.13
2023-01-23T09:35:38.479Z,100495.47
2023-01-23T09:38:05.365Z,100506.59
2023-01-23T09:40:33.611Z,100474.56
2023-01-23T09:43:15.420Z,100467.88
2023-01-23T09:45:46.942Z,100428.06
2023-01-23T09:48:39.323Z,100421.91
2023-01-23T09:51:17.678Z,100431.66
2023-01-23T09:53:44.151Z,100397.84
2023-01-23T09:56:30.098Z,100408.88
2023-01-23T09:59:02.155Z,100405.09
2023-01-23T10:01:30.827Z,100404.41
2023-01-23T10:03:59.842Z,100426.34
2023-01-23T10:06:50.698Z,100423.97
2023-01-23T10:09:30.144Z,100396.72
2023-01-23T10:12:13.501Z,100385.91
2023-01-23T10:14:49.633Z,100385.06
2023-01-23T10:17:41.470Z,100379.81
2023-01-23T10:20:16.733Z,100408.50
2023-01-23T10:22:58.636Z,100420.69
2023-01-23T10:25:28.191Z,100446.63
2023-01-23T10:28:00.507Z,100450.47
2023-01-23T10:30:34.469Z,100425.81
2023-01-23T10:33:11.737Z,100395.38
2023-01-23T10:35:48.883Z,100372.03
2023-01-23T10:38:43.384Z,100370.75
2023-01-23T10:41:11.741Z,100367.81
2023-01-23T10:43:38.575Z,100363.34
2023-01-23T10:46:18.183Z,100375.19
2023-01-23T10:48:52.900Z,100362.06
2023-01-23T10:51:27.463Z,100400.41
2023-01-23T10:54:31.974Z,100389.50
2023-01-23T10:57:24.810Z,100336.53
2023-01-23T10:59:59.049Z,100320.50
2023-01-23T11:02:32.153Z,100334.63
2023-01-23T11:04:59.941Z,100339.56
2023-01-23T11:07:32.042Z,100372.44
2023-01-23T11:10:00.978Z,100364.75
2023-01-23T11:12:30.267Z,100334.09
2023-01-23T11:15:23.345Z,100339.88
2023-01-23T11:17:52.170Z,100356.78
2023-01-23T11:20:25.399Z,100353.06
2023-01-23T11:23:08.439Z,100351.03
2023-01-23T11:25:42.987Z,100370.88
2023-01-23T11:28:29.880Z,100383.75
2023-01-23T11:31:16.160Z,100364.44
2023-01-23T11:34:04.987Z,100349.78
2023-01-23T11:36:45.223Z,100351.44
2023-01-23T11:39:40.348Z,100375.28
2023-01-23T11:42:10.973Z,100376.44
2023-01-23T11:44:45.858Z,100368.34
2023-01-23T11:47:31.080Z,100389.06
2023-01-23T11:50:05.959Z,100352.16
2023-01-23T11:52:35.504Z,100358.72
2023-01-23T11:55:34.583Z,100359.53
2023-01-23T11:58:22.613Z,100365.72
2023-01-23T12:00:58.368Z,100382.47
2023-01-23T12:03:40.719Z,100354.03
2023-01-23T12:09:17.171Z,100337.38
2023-01-23T12:11:52.905Z,100358.47
2023-01-23T12:14:28.235Z,100315.97
2023-01-23T12:17:16.034Z,100273.09
2023-01-23T12:19:59.233Z,100276.69
2023-01-23T12:22:50.319Z,100258.88
2023-01-23T12:25:39.005Z,100248.50
2023-01-23T12:28:44.346Z,100252.94
2023-01-23T12:31:48.344Z,100211.78
2023-01-23T12:35:10.283Z,100205.34
2023-01-23T12:38:10.471Z,100200.16
2023-01-23T12:41:09.209Z,100216.97
2023-01-23T12:43:59.595Z,100224.75
2023-01-23T12:46:32.791Z,100228.94
2023-01-23T12:49:14.121Z,100203.47
2023-01-23T12:51:45.946Z,100228.22
2023-01-23T12:54:17.659Z,100226.25
2023-01-23T12:56:45.070Z,100244.03
2023-01-23T12:59:21.486Z,100265.25
2023-01-23T13:02:03.747Z,100251.25
2023-01-23T13:04:42.536Z,100229.78
2023-01-23T13:07:33.343Z,100190.03
2023-01-23T13:10:33.854Z,100204.44
2023-01-23T13:13:00.308Z,100203.84
2023-01-23T13:15:39.895Z,100197.94
2023-01-23T13:18:23.250Z,100181.97
2023-01-23T13:20:59.303Z,100173.84
2023-01-23T13:23:35.924Z,100175.75
2023-01-23T13:26:17.386Z,100207.38
2023-01-23T13:28:48.278Z,100252.25
2023-01-23T13:31:25.066Z,100265.91
2023-01-23T13:33:52.211Z,100252.78
2023-01-23T13:36:31.152Z,100198.28
2023-01-23T13:39:03.678Z,100209.63
2023-01-23T13:41:32.094Z,100211.22
2023-01-23T13:44:17.802Z,100225.84
2023-01-23T14:22:57.775Z,100272.47
2023-01-23T14:25:25.389Z,100292.50
2023-01-23T14:28:02.889Z,100299.47
2023-01-23T14:30:29.304Z,100297.81
2023-01-23T14:32:57.745Z,100302.25
2023-01-23T14:35:27.708Z,100335.97
2023-01-23T14:37:57.443Z,100310.03
2023-01-23T14:40:28.266Z,100326.72
2023-01-23T14:43:03.505Z,100334.09
2023-01-23T14:45:33.879Z,100360.47
2023-01-23T14:48:05.955Z,100390.16
2023-01-23T14:50:33.975Z,100402.84
2023-01-23T14:53:04.242Z,100406.31
2023-01-23T14:55:34.840Z,100404.50
2023-01-23T14:58:03.934Z,100418.84
2023-01-23T15:00:31.134Z,100417.59
2023-01-23T15:03:00.220Z,100436.75
2023-01-23T15:05:30.171Z,100426.00
2023-01-23T15:08:09.469Z,100426.75
2023-01-23T15:10:44.184Z,100397.25
2023-01-23T15:14:06.213Z,100405.56
2023-01-23T15:16:36.843Z,100400.00
2023-01-23T15:19:18.766Z,100432.13
2023-01-23T15:21:45.430Z,100439.09
2023-01-23T15:24:11.945Z,100440.44
2023-01-23T15:26:57.850Z,100438.47
2023-01-23T15:29:24.293Z,100426.34
2023-01-23T15:31:53.145Z,100427.94
2023-01-23T15:34:29.499Z,100430.63
2023-01-23T15:37:01.174Z,100466.94
2023-01-23T15:39:46.499Z,100467.47
2023-01-23T15:42:16.050Z,100484.75
2023-01-23T15:44:44.316Z,100497.16
2023-01-23T15:47:12.040Z,100500.75
2023-01-23T15:49:42.384Z,100510.06
2023-01-23T15:52:21.403Z,100502.69
2023-01-23T15:54:51.488Z,100487.97
2023-01-23T15:57:38.131Z,100479.91
2023-01-23T16:00:16.099Z,100488.78
2023-01-23T16:02:55.133Z,100514.16
2023-01-23T16:05:44.153Z,100505.03
2023-01-23T16:08:21.371Z,100493.13
2023-01-23T16:10:48.440Z,100458.44
2023-01-23T16:13:17.359Z,100463.91
2023-01-23T16:15:45.005Z,100498.75
2023-01-23T16:18:11.511Z,100513.53
2023-01-23T16:20:42.478Z,100506.91
2023-01-23T16:23:19.984Z,100504.66
2023-01-23T16:25:47.012Z,100515.19
2023-01-23T16:28:20.245Z,100530.16
2023-01-23T16:30:48.148Z,100544.09
2023-01-23T16:33:14.848Z,100535.88
2023-01-23T16:35:41.821Z,100538.13
2023-01-23T16:38:19.657Z,100492.84
2023-01-23T16:40:46.068Z,100485.69
2023-01-23T16:43:12.439Z,100464.63
2023-01-23T16:45:38.884Z,100472.81
2023-01-23T16:48:06.400Z,100487.78
2023-01-23T16:50:36.531Z,100486.63
2023-01-23T16:53:10.731Z,100481.47
2023-01-23T16:55:41.841Z,100495.69
2023-01-23T16:58:16.389Z,100506.13
2023-01-23T17:00:43.095Z,100515.72
2023-01-23T17:03:10.572Z,100514.88
2023-01-23T17:05:37.117Z,100532.06
2023-01-23T17:08:21.287Z,100520.88
2023-01-23T17:11:07.416Z,100506.97
2023-01-23T17:13:34.506Z,100495.38
2023-01-23T17:16:03.565Z,100505.06
2023-01-23T17:18:33.664Z,100510.34
2023-01-23T17:21:01.024Z,100526.34
2023-01-23T17:23:27.724Z,100521.84
2023-01-23T17:26:00.722Z,100527.31
2023-01-23T17:28:28.204Z,100529.81
2023-01-23T17:30:55.603Z,100537.00
2023-01-23T17:33:30.387Z,100536.16
2023-01-23T17:35:57.100Z,100543.19
2023-01-23T17:38:26.208Z,100539.00
2023-01-23T17:40:53.128Z,100536.16
2023-01-23T17:43:21.432Z,100552.69
2023-01-23T17:45:50.246Z,100545.94
2023-01-23T17:48:24.874Z,100564.41
2023-01-23T17:50:51.471Z,100563.63
2023-01-23T17:53:18.055Z,100562.81
2023-01-23T17:55:44.624Z,100567.13
2023-01-23T17:58:11.298Z,100575.78
2023-01-23T18:00:39.207Z,100572.31
2023-01-23T18:03:07.463Z,100570.31
2023-01-23T18:05:33.928Z,100564.28
2023-01-23T18:08:02.360Z,100566.91
2023-01-23T18:10:29.107Z,100571.34
2023-01-23T18:13:10.768Z,100593.28
2023-01-23T18:16:04.604Z,100585.38
2023-01-23T18:18:33.887Z,100570.31
2023-01-23T18:21:02.208Z,100547.34
2023-01-23T18:23:30.715Z,100549.16
2023-01-23T18:26:28.289Z,100566.72
2023-01-23T18:29:42.440Z,100573.91
2023-01-23T18:32:14.863Z,100572.88
2023-01-23T18:35:04.389Z,100565.16
2023-01-23T18:38:04.102Z,100562.53
2023-01-23T18:41:05.380Z,100591.69
2023-01-23T18:44:12.846Z,100577.38
2023-01-23T18:46:39.507Z,100583.59
2023-01-23T18:49:06.243Z,100580.97
2023-01-23T18:51:44.488Z,100572.19
2023-01-23T18:54:28.928Z,100575.69
2023-01-23T18:57:06.750Z,100579.16
2023-01-23T19:00:07.561Z,100596.03
2023-01-23T19:02:44.536Z,100590.63
2023-01-23T19:05:13.627Z,100595.06
2023-01-23T19:07:40.670Z,100617.38
2023-01-23T19:10:13.489Z,100637.63
2023-01-23T19:13:03.242Z,100655.13
2023-01-23T19:15:41.564Z,100674.50
2023-01-23T19:18:13.466Z,100663.00
2023-01-23T19:20:46.854Z,100629.13
2023-01-23T19:23:34.927Z,100633.47
2023-01-23T19:26:03.293Z,100651.81
2023-01-23T19:28:30.527Z,100642.31
2023-01-23T19:31:03.126Z,100661.72
2023-01-23T19:33:39.574Z,100669.69
2023-01-23T19:36:16.695Z,100681.09
2023-01-23T19:38:44.041Z,100689.28
2023-01-23T19:41:25.788Z,100682.59
2023-01-23T19:43:55.079Z,100660.75
2023-01-23T19:46:26.513Z,100651.50
2023-01-23T19:48:52.986Z,100661.09
2023-01-23T19:51:21.416Z,100615.34
2023-01-23T19:53:48.012Z,100625.72
2023-01-23T19:56:17.641Z,100646.03
2023-01-23T19:58:44.923Z,100654.50
2023-01-23T20:01:34.634Z,100647.19
2023-01-23T20:04:02.037Z,100652.44
2023-01-23T20:06:28.903Z,100637.31
2023-01-23T20:08:55.485Z,100612.50
2023-01-23T20:11:22.106Z,100631.34
2023-01-23T20:13:48.586Z,100636.06
2023-01-23T20:16:23.160Z,100639.53
2023-01-23T20:18:50.405Z,100641.78
2023-01-23T20:21:20.655Z,100648.28
2023-01-23T20:23:48.315Z,100663.75
2023-01-23T20:26:16.551Z,100673.72
2023-01-23T20:28:43.372Z,100639.97
2023-01-23T20:31:13.946Z,100615.19
2023-01-23T20:33:41.107Z,100589.34
2023-01-23T20:36:08.856Z,100593.53
2023-01-23T20:38:35.486Z,100590.94
2023-01-23T20:41:04.212Z,100604.88
2023-01-23T20:43:30.731Z,100628.91
2023-01-23T20:45:57.373Z,100651.03
2023-01-23T20:48:23.800Z,100646.88
2023-01-23T20:50:56.946Z,100616.94
2023-01-23T20:53:23.973Z,100645.25
2023-01-23T20:55:54.870Z,100640.06
2023-01-23T20:58:21.493Z,100630.66
2023-01-23T21:00:48.008Z,100633.84
2023-01-23T21:03:14.825Z,100610.19
2023-01-23T21:05:41.504Z,100634.00
2023-01-23T21:08:08.026Z,100658.84
2023-01-23T21:10:34.641Z,100685.19
2023-01-23T21:13:01.035Z,100676.75
2023-01-23T21:15:27.643Z,100670.06
2023-01-23T21:17:54.475Z,100677.59
2023-01-23T21:20:21.166Z,100696.13
2023-01-23T21:22:47.544Z,100663.00
2023-01-23T21:25:14.150Z,100664.09
2023-01-23T21:27:40.554Z,100676.72
2023-01-23T21:30:07.819Z,100662.34
2023-01-23T21:32:34.665Z,100661.31
2023-01-23T21:35:01.173Z,100689.09
2023-01-23T21:37:27.692Z,100694.25
2023-01-23T21:39:54.130Z,100697.47
2023-01-23T21:42:20.694Z,100717.41
2023-01-23T21:44:47.129Z,100689.50
2023-01-23T21:47:13.621Z,100693.41
2023-01-23T21:49:40.123Z,100689.94
2023-01-23T21:52:06.788Z,100693.41
2023-01-23T21:54:33.205Z,100716.75
2023-01-23T21:56:59.695Z,100722.47
2023-01-23T21:59:26.281Z,100719.97
2023-01-23T22:01:53.297Z,100708.06
2023-01-23T22:04:20.604Z,100727.94
2023-01-23T22:06:47.025Z,100715.91
2023-01-23T22:09:17.821Z,100725.22
2023-01-23T22:11:45.656Z,100743.88
2023-01-23T22:14:12.342Z,100754.13
2023-01-23T22:16:53.838Z,100737.91
2023-01-23T22:19:25.004Z,100709.41
2023-01-23T22:21:53.610Z,100727.56
2023-01-23T22:24:20.346Z,100702.63
2023-01-23T22:26:47.113Z,100720.59
2023-01-23T22:29:13.628Z,100727.09
2023-01-23T22:31:40.513Z,100737.66
2023-01-23T22:34:06.958Z,100736.16
2023-01-23T22:36:33.372Z,100724.84
2023-01-23T22:38:59.892Z,100706.84
2023-01-23T22:41:26.516Z,100719.25
2023-01-23T22:43:56.751Z,100703.31
2023-01-23T22:46:23.869Z,100720.78
2023-01-23T22:48:51.109Z,100714.00
2023-01-23T22:51:24.673Z,100729.00
2023-01-23T22:53:53.284Z,100740.59
2023-01-23T22:56:20.270Z,100744.34
2023-01-23T22:58:47.980Z,100737.06
2023-01-23T23:01:15.191Z,100736.25
2023-01-23T23:03:42.280Z,100756.19
2023-01-23T23:06:12.074Z,100748.47
2023-01-23T23:08:39.322Z,100733.44
2023-01-23T23:11:12.728Z,100749.13
2023-01-23T23:13:41.247Z,100745.09
2023-01-23T23:16:20.123Z,100727.88
2023-01-23T23:18:48.491Z,100728.91
2023-01-23T23:21:17.684Z,100707.72
2023-01-23T23:23:44.319Z,100734.28
2023-01-23T23:26:11.449Z,100722.03
2023-01-23T23:28:38.739Z,100743.47
2023-01-23T23:31:07.323Z,100751.88
2023-01-23T23:33:34.150Z,100772.47
2023-01-23T23:36:00.718Z,100759.41
2023-01-23T23:38:27.409Z,100773.53
2023-01-23T23:41:02.517Z,100751.13
2023-01-23T23:43:29.411Z,100755.09
2023-01-23T23:45:58.514Z,100771.06
2023-01-23T23:48:25.510Z,100766.34
2023-01-23T23:50:52.513Z,100746.13
2023-01-23T23:53:21.332Z,100733.44
2023-01-23T23:55:48.234Z,100710.81
2023-01-23T23:58:15.402Z,100711.41
